Time;durP1;ratioP1;P1;durP2;ratioP2;P2;SDS_P1;SDS_P2;PMS_P1;PMS_P2;Temp;Humidity;BMP_temperature;BMP_pressure;BME280_temperature;BME280_humidity;BME280_pressure;Samples;Min_cycle;Max_cycle;Signal;HPM_P1;HPM_P2
2022/05/07 00:02:17;;;;;;;11.82;6.35;;;;;;;;;;5013950;28;20176;-61
2022/05/07 00:04:44;;;;;;;12.52;6.50;;;;;;;;;;5010918;28;20060;-59
2022/05/07 00:07:11;;;;;;;9.48;5.55;;;;;;;;;;5020749;28;20137;-58
2022/05/07 00:09:38;;;;;;;11.52;6.22;;;;;;;;;;5030126;28;20056;-58
2022/05/07 00:12:06;;;;;;;10.20;5.93;;;;;;;;;;5021424;28;20060;-59
2022/05/07 00:14:34;;;;;;;11.98;5.88;;;;;;;;;;5034377;28;20053;-58
2022/05/07 00:19:49;;;;;;;9.60;5.18;;;;;;;;;;5023882;28;20046;-59
2022/05/07 00:22:23;;;;;;;8.63;5.25;;;;;;;;;;5023946;28;20064;-59
2022/05/07 00:24:50;;;;;;;9.38;5.20;;;;;;;;;;5039844;28;20143;-59
2022/05/07 00:27:20;;;;;;;10.90;6.35;;;;;;;;;;5033547;28;20080;-58
2022/05/07 00:29:56;;;;;;;13.02;6.20;;;;;;;;;;5051224;28;20072;-58
2022/05/07 00:32:26;;;;;;;11.63;6.07;;;;;;;;;;5040007;28;20053;-59
2022/05/07 00:34:53;;;;;;;9.55;5.05;;;;;;;;;;5016797;28;20119;-58
2022/05/07 00:37:19;;;;;;;17.17;6.28;;;;;;;;;;5008395;28;20054;-58
2022/05/07 00:39:48;;;;;;;10.85;5.97;;;;;;;;;;5018088;28;20083;-60
2022/05/07 00:42:16;;;;;;;9.00;5.40;;;;;;;;;;5010053;28;20104;-59
2022/05/07 00:44:46;;;;;;;10.27;5.88;;;;;;;;;;4997888;28;20195;-58
2022/05/07 00:47:19;;;;;;;13.73;5.65;;;;;;;;;;4983097;28;20063;-60
2022/05/07 00:49:51;;;;;;;13.68;5.28;;;;;;;;;;5015013;28;20061;-59
2022/05/07 00:52:18;;;;;;;10.98;5.38;;;;;;;;;;5034539;28;20056;-58
2022/05/07 00:54:52;;;;;;;9.48;5.30;;;;;;;;;;5039742;28;20053;-60
2022/05/07 00:57:21;;;;;;;12.38;5.15;;;;;;;;;;5046246;28;20050;-59
2022/05/07 00:59:48;;;;;;;14.63;6.15;;;;;;;;;;5036958;28;20058;-58
2022/05/07 01:02:27;;;;;;;10.65;5.25;;;;;;;;;;5031248;28;20054;-58
2022/05/07 01:04:57;;;;;;;7.80;4.35;;;;;;;;;;5031993;28;20124;-59
2022/05/07 01:07:39;;;;;;;13.95;6.05;;;;;;;;;;5017978;28;20074;-59
2022/05/07 01:10:07;;;;;;;8.05;4.80;;;;;;;;;;5003225;28;20116;-59
2022/05/07 01:12:36;;;;;;;11.00;6.10;;;;;;;;;;5008436;28;20088;-58
2022/05/07 01:15:04;;;;;;;9.68;5.13;;;;;;;;;;5036606;28;20115;-61
2022/05/07 01:17:38;;;;;;;11.68;6.38;;;;;;;;;;5040516;28;20053;-62
2022/05/07 01:20:12;;;;;;;12.90;5.32;;;;;;;;;;5046934;28;20053;-59
2022/05/07 01:22:56;;;;;;;9.50;4.97;;;;;;;;;;5061995;28;20061;-59
2022/05/07 01:25:30;;;;;;;8.57;4.90;;;;;;;;;;5011429;28;20127;-59
2022/05/07 01:27:59;;;;;;;13.93;5.82;;;;;;;;;;5022948;28;20054;-59
2022/05/07 01:30:27;;;;;;;9.15;4.95;;;;;;;;;;5009547;28;20060;-58
2022/05/07 01:32:54;;;;;;;8.65;4.85;;;;;;;;;;5021431;28;20046;-58
2022/05/07 01:35:21;;;;;;;9.88;6.03;;;;;;;;;;5029145;28;20057;-58
2022/05/07 01:37:49;;;;;;;13.35;6.50;;;;;;;;;;5023309;28;20131;-59
2022/05/07 01:40:18;;;;;;;10.60;5.97;;;;;;;;;;5028771;28;20061;-58
2022/05/07 01:42:48;;;;;;;11.05;5.35;;;;;;;;;;5019767;28;20064;-58
2022/05/07 01:45:15;;;;;;;8.80;4.63;;;;;;;;;;5029829;28;20058;-58
2022/05/07 01:50:28;;;;;;;8.45;4.32;;;;;;;;;;5009384;28;20220;-60
2022/05/07 01:53:09;;;;;;;8.55;4.97;;;;;;;;;;5012645;28;20054;-59
2022/05/07 01:55:53;;;;;;;12.40;6.23;;;;;;;;;;5024845;28;20054;-59
2022/05/07 01:58:22;;;;;;;11.57;6.22;;;;;;;;;;5020903;28;20080;-60
2022/05/07 02:00:51;;;;;;;10.18;5.68;;;;;;;;;;5039980;28;20135;-58
2022/05/07 02:03:23;;;;;;;10.65;5.07;;;;;;;;;;5022406;28;20053;-58
2022/05/07 02:05:54;;;;;;;10.70;4.97;;;;;;;;;;5002939;28;20054;-58
2022/05/07 02:08:44;;;;;;;8.52;4.90;;;;;;;;;;5019880;28;20060;-58
2022/05/07 02:11:18;;;;;;;9.77;4.95;;;;;;;;;;5016832;28;20057;-59
2022/05/07 02:13:49;;;;;;;16.02;8.05;;;;;;;;;;5020308;28;20049;-59
2022/05/07 02:16:21;;;;;;;13.40;7.03;;;;;;;;;;5044298;28;20082;-58
2022/05/07 02:18:50;;;;;;;9.43;5.10;;;;;;;;;;4995135;28;20050;-59
2022/05/07 02:21:21;;;;;;;12.07;5.63;;;;;;;;;;5015965;28;20053;-58
2022/05/07 02:23:52;;;;;;;11.10;6.05;;;;;;;;;;5030332;28;20104;-60
2022/05/07 02:26:22;;;;;;;10.38;5.15;;;;;;;;;;5010477;28;20058;-59
2022/05/07 02:28:54;;;;;;;14.68;8.25;;;;;;;;;;5002397;28;20050;-59
2022/05/07 02:31:22;;;;;;;10.13;6.03;;;;;;;;;;5018632;28;20089;-61
2022/05/07 02:34:07;;;;;;;10.13;5.32;;;;;;;;;;5009689;28;20050;-57
2022/05/07 02:36:50;;;;;;;11.27;5.60;;;;;;;;;;5020090;28;20060;-60
2022/05/07 02:39:21;;;;;;;11.02;5.80;;;;;;;;;;5027473;28;20045;-58
2022/05/07 02:44:41;;;;;;;11.75;6.05;;;;;;;;;;5028295;28;20117;-58
2022/05/07 02:47:09;;;;;;;9.50;5.22;;;;;;;;;;5040920;28;20051;-58
2022/05/07 02:49:38;;;;;;;16.67;8.70;;;;;;;;;;5022825;28;20079;-59
2022/05/07 02:52:11;;;;;;;13.85;7.55;;;;;;;;;;5033270;28;20068;-59
2022/05/07 02:54:41;;;;;;;11.23;5.22;;;;;;;;;;5046407;28;20040;-58
2022/05/07 03:00:02;;;;;;;17.45;9.90;;;;;;;;;;4974605;28;20046;-58
2022/05/07 03:02:32;;;;;;;9.27;5.65;;;;;;;;;;4999425;28;20054;-58
2022/05/07 03:07:45;;;;;;;14.23;6.30;;;;;;;;;;5019930;28;20053;-58
2022/05/07 03:10:15;;;;;;;10.25;5.60;;;;;;;;;;5007024;28;20057;-58
2022/05/07 03:12:43;;;;;;;15.70;8.65;;;;;;;;;;5021529;28;20057;-58
2022/05/07 03:18:01;;;;;;;19.75;9.75;;;;;;;;;;5026357;28;20069;-59
2022/05/07 03:20:34;;;;;;;13.27;7.35;;;;;;;;;;5012023;28;20061;-58
2022/05/07 03:23:04;;;;;;;11.95;6.90;;;;;;;;;;5037816;28;20060;-58
2022/05/07 03:25:34;;;;;;;19.83;9.80;;;;;;;;;;5037707;28;20045;-58
2022/05/07 03:28:03;;;;;;;15.88;8.07;;;;;;;;;;5044856;28;20053;-58
2022/05/07 03:30:35;;;;;;;23.20;11.02;;;;;;;;;;5022730;28;20045;-59
2022/05/07 03:33:07;;;;;;;20.60;10.45;;;;;;;;;;5021217;28;20053;-59
2022/05/07 03:35:34;;;;;;;14.75;8.95;;;;;;;;;;5038300;28;20057;-58
2022/05/07 03:38:05;;;;;;;17.33;8.60;;;;;;;;;;5003003;28;20060;-58
2022/05/07 03:40:35;;;;;;;16.00;8.95;;;;;;;;;;5021601;28;20162;-58
2022/05/07 03:43:08;;;;;;;20.08;10.35;;;;;;;;;;5025826;28;20056;-58
2022/05/07 03:45:35;;;;;;;18.25;9.88;;;;;;;;;;5018081;28;20049;-59
2022/05/07 03:48:03;;;;;;;16.30;8.93;;;;;;;;;;5019700;28;20104;-58
2022/05/07 03:50:32;;;;;;;17.05;9.40;;;;;;;;;;5028430;28;20041;-58
2022/05/07 03:55:49;;;;;;;16.02;8.75;;;;;;;;;;5007147;28;20062;-58
2022/05/07 03:58:18;;;;;;;22.23;10.85;;;;;;;;;;5015949;28;20049;-58
2022/05/07 04:00:51;;;;;;;21.85;10.90;;;;;;;;;;5029848;28;20100;-58
2022/05/07 04:03:20;;;;;;;18.67;8.32;;;;;;;;;;4995135;28;20080;-58
2022/05/07 04:05:54;;;;;;;21.85;10.45;;;;;;;;;;5021624;28;20084;-58
2022/05/07 04:08:23;;;;;;;24.10;11.13;;;;;;;;;;5019624;28;20085;-60
2022/05/07 04:11:09;;;;;;;21.42;12.15;;;;;;;;;;5025805;28;20103;-58
2022/05/07 04:13:45;;;;;;;19.05;10.98;;;;;;;;;;5017969;28;20103;-58
2022/05/07 04:16:13;;;;;;;17.17;9.80;;;;;;;;;;5030382;28;20107;-58
2022/05/07 04:18:47;;;;;;;19.83;10.68;;;;;;;;;;5034831;28;20079;-58
2022/05/07 04:21:15;;;;;;;18.65;9.38;;;;;;;;;;5042894;28;20049;-58
2022/05/07 04:23:46;;;;;;;18.77;10.10;;;;;;;;;;5032961;28;20057;-58
2022/05/07 04:26:20;;;;;;;17.52;8.90;;;;;;;;;;5027926;28;20045;-58
2022/05/07 04:28:54;;;;;;;20.80;11.02;;;;;;;;;;5033723;28;20056;-61
2022/05/07 04:31:28;;;;;;;15.55;8.73;;;;;;;;;;5013039;28;20048;-59
2022/05/07 04:33:57;;;;;;;21.48;11.05;;;;;;;;;;5032928;28;20055;-60
2022/05/07 04:36:28;;;;;;;23.63;10.95;;;;;;;;;;5033510;28;20058;-58
2022/05/07 04:39:00;;;;;;;22.63;12.07;;;;;;;;;;5015010;28;20132;-58
2022/05/07 04:41:37;;;;;;;19.65;10.68;;;;;;;;;;5007526;28;20057;-60
2022/05/07 04:44:08;;;;;;;16.05;9.05;;;;;;;;;;5024602;28;20053;-59
2022/05/07 04:46:39;;;;;;;15.95;8.45;;;;;;;;;;5027315;28;20136;-60
2022/05/07 04:49:09;;;;;;;17.73;9.65;;;;;;;;;;5022592;28;20086;-60
2022/05/07 04:51:37;;;;;;;26.25;12.57;;;;;;;;;;5029921;28;20135;-60
2022/05/07 04:56:51;;;;;;;21.05;10.95;;;;;;;;;;5027512;28;20085;-60
2022/05/07 04:59:23;;;;;;;21.77;11.25;;;;;;;;;;5030882;28;20065;-60
2022/05/07 05:02:07;;;;;;;20.73;10.93;;;;;;;;;;5029896;28;20068;-58
2022/05/07 05:04:39;;;;;;;22.65;11.82;;;;;;;;;;5024480;28;20044;-58
2022/05/07 05:07:11;;;;;;;25.42;13.18;;;;;;;;;;5032554;28;20146;-58
2022/05/07 05:09:39;;;;;;;26.33;11.48;;;;;;;;;;5021870;28;20058;-58
2022/05/07 05:12:07;;;;;;;21.25;11.13;;;;;;;;;;5028156;28;20046;-58
2022/05/07 05:17:18;;;;;;;18.92;10.25;;;;;;;;;;5026501;28;20139;-58
2022/05/07 05:19:45;;;;;;;23.10;12.45;;;;;;;;;;5019587;28;20137;-58
2022/05/07 05:22:13;;;;;;;25.25;13.40;;;;;;;;;;5025658;28;20060;-58
2022/05/07 05:24:44;;;;;;;21.92;11.30;;;;;;;;;;5018168;28;20042;-58
2022/05/07 05:27:14;;;;;;;21.02;10.88;;;;;;;;;;5029698;28;20060;-58
2022/05/07 05:29:48;;;;;;;24.45;12.63;;;;;;;;;;5006506;28;20046;-59
2022/05/07 05:32:21;;;;;;;24.63;11.48;;;;;;;;;;5032548;28;20041;-58
2022/05/07 05:34:54;;;;;;;16.38;9.10;;;;;;;;;;5039783;28;20064;-59
2022/05/07 05:37:30;;;;;;;19.65;10.70;;;;;;;;;;5015431;28;20053;-58
2022/05/07 05:40:00;;;;;;;21.30;11.30;;;;;;;;;;5028755;28;20156;-58
2022/05/07 05:42:32;;;;;;;23.63;12.52;;;;;;;;;;4988811;28;20053;-58
2022/05/07 05:45:17;;;;;;;20.50;10.68;;;;;;;;;;5021801;28;20054;-58
2022/05/07 05:47:49;;;;;;;22.52;11.65;;;;;;;;;;5019958;28;20050;-58
2022/05/07 05:50:17;;;;;;;24.00;13.57;;;;;;;;;;5030110;28;20057;-57
2022/05/07 05:52:45;;;;;;;16.98;9.73;;;;;;;;;;5014647;28;20127;-59
2022/05/07 05:55:15;;;;;;;22.27;13.15;;;;;;;;;;5032855;28;20049;-59
2022/05/07 05:57:44;;;;;;;19.58;10.07;;;;;;;;;;5039209;28;20049;-59
2022/05/07 06:00:16;;;;;;;29.13;14.10;;;;;;;;;;5038595;28;20056;-59
2022/05/07 06:02:44;;;;;;;23.35;12.32;;;;;;;;;;5039590;28;20054;-58
2022/05/07 06:05:17;;;;;;;20.02;10.85;;;;;;;;;;5026620;28;20045;-58
2022/05/07 06:07:43;;;;;;;17.02;8.95;;;;;;;;;;5036084;28;20053;-60
2022/05/07 06:10:22;;;;;;;25.15;10.95;;;;;;;;;;5014329;28;20071;-59
2022/05/07 06:12:49;;;;;;;22.50;10.45;;;;;;;;;;5021515;28;20057;-58
2022/05/07 06:15:33;;;;;;;18.15;8.23;;;;;;;;;;5001587;28;20156;-60
2022/05/07 06:18:12;;;;;;;17.50;9.13;;;;;;;;;;4980009;28;20053;-60
2022/05/07 06:20:41;;;;;;;17.75;8.63;;;;;;;;;;5018221;28;22142;-59
2022/05/07 06:23:09;;;;;;;19.60;8.60;;;;;;;;;;5005669;28;20053;-60
2022/05/07 06:28:22;;;;;;;24.40;8.85;;;;;;;;;;5037073;28;20057;-58
2022/05/07 06:30:51;;;;;;;;;;;;;;;;;;5032606;28;20057;-58
2022/05/07 06:33:22;;;;;;;24.00;8.82;;;;;;;;;;5009460;28;19933;-59
2022/05/07 06:35:56;;;;;;;20.05;8.90;;;;;;;;;;5015745;28;20057;-58
2022/05/07 06:38:25;;;;;;;22.10;9.23;;;;;;;;;;5026429;28;20057;-59
2022/05/07 06:40:56;;;;;;;23.75;8.40;;;;;;;;;;5043585;28;20046;-58
2022/05/07 06:43:23;;;;;;;21.20;10.90;;;;;;;;;;5038144;28;20050;-58
2022/05/07 06:45:49;;;;;;;25.08;11.20;;;;;;;;;;5030306;28;20057;-58
2022/05/07 06:48:18;;;;;;;22.58;9.70;;;;;;;;;;4996357;28;20057;-58
2022/05/07 06:50:46;;;;;;;14.55;7.82;;;;;;;;;;5018405;28;20057;-58
2022/05/07 06:53:13;;;;;;;24.15;8.98;;;;;;;;;;5039615;28;20084;-58
2022/05/07 06:58:20;;;;;;;22.40;8.85;;;;;;;;;;5026240;28;20084;-58
2022/05/07 07:00:50;;;;;;;11.20;6.40;;;;;;;;;;5038548;28;20065;-57
2022/05/07 07:03:19;;;;;;;21.90;8.98;;;;;;;;;;5042166;28;20053;-58
2022/05/07 07:05:48;;;;;;;14.82;6.78;;;;;;;;;;5019135;28;20068;-58
2022/05/07 07:08:15;;;;;;;22.50;9.68;;;;;;;;;;5043135;28;20105;-58
2022/05/07 07:10:42;;;;;;;17.27;8.18;;;;;;;;;;5036566;28;20053;-59
2022/05/07 07:13:08;;;;;;;28.42;9.25;;;;;;;;;;5042593;28;20080;-58
2022/05/07 07:15:39;;;;;;;28.23;9.83;;;;;;;;;;5036243;28;20136;-58
2022/05/07 07:18:09;;;;;;;22.15;9.35;;;;;;;;;;5057993;28;20133;-58
2022/05/07 07:20:37;;;;;;;18.98;8.70;;;;;;;;;;5035018;28;20057;-58
2022/05/07 07:23:05;;;;;;;20.70;9.63;;;;;;;;;;5005853;28;20046;-58
2022/05/07 07:25:32;;;;;;;26.23;8.90;;;;;;;;;;4998790;28;20054;-58
2022/05/07 07:27:59;;;;;;;22.27;11.32;;;;;;;;;;5020701;28;20058;-61
2022/05/07 07:30:25;;;;;;;21.88;9.90;;;;;;;;;;5035815;28;20037;-59
2022/05/07 07:32:52;;;;;;;23.08;9.65;;;;;;;;;;5027345;28;20045;-58
2022/05/07 07:35:18;;;;;;;27.83;9.75;;;;;;;;;;5019360;28;20099;-59
2022/05/07 07:37:46;;;;;;;19.85;8.32;;;;;;;;;;5042765;28;20103;-58
2022/05/07 07:40:15;;;;;;;17.17;7.45;;;;;;;;;;5021700;28;20048;-58
2022/05/07 07:42:41;;;;;;;19.90;8.18;;;;;;;;;;5023835;28;20057;-58
2022/05/07 07:47:59;;;;;;;25.38;9.38;;;;;;;;;;5042401;28;20045;-58
2022/05/07 07:50:29;;;;;;;28.42;8.77;;;;;;;;;;5021339;28;20057;-61
2022/05/07 07:52:56;;;;;;;24.90;9.73;;;;;;;;;;5023378;28;20046;-59
2022/05/07 07:55:24;;;;;;;23.58;9.15;;;;;;;;;;5023283;28;20053;-58
2022/05/07 07:57:53;;;;;;;25.33;10.05;;;;;;;;;;5032303;28;20112;-59
2022/05/07 08:00:22;;;;;;;;;;;;;;;;;;5026322;28;20045;-58
2022/05/07 08:02:50;;;;;;;23.83;8.55;;;;;;;;;;5036649;28;19925;-58
2022/05/07 08:05:17;;;;;;;22.55;9.93;;;;;;;;;;5043431;28;20060;-58
2022/05/07 08:13:15;;;;;;;17.70;8.38;;;;;;;;;;5037750;28;20058;-60
2022/05/07 08:15:45;;;;;;;27.08;10.50;;;;;;;;;;5028861;28;20061;-61
2022/05/07 08:18:12;;;;;;;18.08;8.25;;;;;;;;;;5031998;28;20049;-60
2022/05/07 08:20:41;;;;;;;30.30;11.18;;;;;;;;;;5055692;28;20053;-59
2022/05/07 08:23:08;;;;;;;19.67;7.68;;;;;;;;;;5027840;28;20080;-59
2022/05/07 08:25:36;;;;;;;28.30;11.35;;;;;;;;;;5043829;28;20049;-59
2022/05/07 08:28:02;;;;;;;30.95;9.77;;;;;;;;;;5027280;28;20081;-59
2022/05/07 08:30:29;;;;;;;25.17;9.27;;;;;;;;;;5021697;28;20081;-60
2022/05/07 08:32:56;;;;;;;23.00;8.50;;;;;;;;;;5035421;28;20045;-61
2022/05/07 08:35:22;;;;;;;24.35;9.82;;;;;;;;;;5044366;28;20060;-59
2022/05/07 08:37:50;;;;;;;22.58;8.60;;;;;;;;;;5016179;28;20049;-60
2022/05/07 08:40:19;;;;;;;14.60;6.72;;;;;;;;;;5012915;28;20046;-60
2022/05/07 08:42:47;;;;;;;22.58;7.78;;;;;;;;;;5037506;28;20057;-59
2022/05/07 08:45:14;;;;;;;19.42;7.38;;;;;;;;;;5044340;28;20065;-61
2022/05/07 08:47:41;;;;;;;22.25;8.20;;;;;;;;;;5022075;28;20213;-59
2022/05/07 08:50:09;;;;;;;23.30;8.23;;;;;;;;;;5024701;28;20053;-59
2022/05/07 08:52:39;;;;;;;20.02;8.73;;;;;;;;;;5040886;28;20049;-59
2022/05/07 08:55:06;;;;;;;22.65;7.68;;;;;;;;;;5008838;28;20048;-60
2022/05/07 08:57:32;;;;;;;20.95;7.38;;;;;;;;;;5034508;28;20030;-60
2022/05/07 09:00:00;;;;;;;19.20;7.22;;;;;;;;;;5034814;28;20042;-60
2022/05/07 09:02:27;;;;;;;18.85;6.95;;;;;;;;;;5045055;28;20045;-60
2022/05/07 09:04:54;;;;;;;15.32;6.95;;;;;;;;;;5011647;28;20049;-60
2022/05/07 09:07:21;;;;;;;20.30;9.02;;;;;;;;;;5044586;28;20053;-62
2022/05/07 09:09:48;;;;;;;21.98;8.20;;;;;;;;;;5036035;28;20042;-60
2022/05/07 09:12:22;;;;;;;15.35;6.35;;;;;;;;;;5045235;28;20049;-61
2022/05/07 09:14:48;;;;;;;19.13;7.30;;;;;;;;;;5038527;28;20061;-61
2022/05/07 09:17:18;;;;;;;19.85;8.57;;;;;;;;;;5045028;28;20057;-60
2022/05/07 09:19:45;;;;;;;17.63;7.53;;;;;;;;;;5037261;28;20099;-61
2022/05/07 09:22:12;;;;;;;22.98;8.52;;;;;;;;;;5028720;28;20056;-60
2022/05/07 09:24:39;;;;;;;23.40;9.43;;;;;;;;;;5038471;28;20045;-61
2022/05/07 09:27:06;;;;;;;21.80;8.45;;;;;;;;;;5045167;28;20073;-60
2022/05/07 09:29:33;;;;;;;14.45;7.20;;;;;;;;;;5021623;28;20046;-61
2022/05/07 09:32:10;;;;;;;22.65;8.95;;;;;;;;;;5043726;28;20097;-62
2022/05/07 09:37:33;;;;;;;15.43;6.72;;;;;;;;;;5049948;28;20188;-61
2022/05/07 09:40:03;;;;;;;15.40;6.65;;;;;;;;;;5031711;28;20069;-62
2022/05/07 09:42:30;;;;;;;19.20;7.85;;;;;;;;;;5034895;28;20057;-60
2022/05/07 09:44:57;;;;;;;17.20;6.85;;;;;;;;;;5021411;28;20057;-60
2022/05/07 09:47:24;;;;;;;22.15;8.70;;;;;;;;;;5040487;28;20080;-62
2022/05/07 09:57:30;;;;;;;17.40;7.60;;;;;;;;;;5044763;28;20065;-61
2022/05/07 09:58:07;;;;;;;19.88;7.82;;;;;;;;;;4998947;28;20041;-61
2022/05/07 10:00:37;;;;;;;23.08;8.63;;;;;;;;;;5037003;28;20066;-61
2022/05/07 10:03:07;;;;;;;20.27;8.07;;;;;;;;;;5006592;28;20062;-60
2022/05/07 10:05:44;;;;;;;18.75;7.13;;;;;;;;;;5025060;28;20053;-60
2022/05/07 10:08:20;;;;;;;19.25;7.72;;;;;;;;;;5040576;28;20121;-62
2022/05/07 10:10:49;;;;;;;20.83;8.55;;;;;;;;;;5042459;28;20073;-61
2022/05/07 10:13:17;;;;;;;18.98;8.20;;;;;;;;;;5036805;28;20152;-61
2022/05/07 10:15:45;;;;;;;17.83;7.68;;;;;;;;;;5043472;28;20068;-61
2022/05/07 10:18:14;;;;;;;16.33;7.65;;;;;;;;;;5032911;28;20045;-61
2022/05/07 10:20:44;;;;;;;14.38;6.55;;;;;;;;;;5032735;28;20217;-61
2022/05/07 10:23:11;;;;;;;12.07;6.32;;;;;;;;;;5037149;28;20049;-61
2022/05/07 10:25:38;;;;;;;19.67;8.60;;;;;;;;;;5038485;28;20108;-60
2022/05/07 10:28:10;;;;;;;15.82;5.78;;;;;;;;;;5021376;28;20073;-62
2022/05/07 10:30:47;;;;;;;13.38;5.80;;;;;;;;;;5033672;28;20174;-61
2022/05/07 10:33:13;;;;;;;14.85;6.32;;;;;;;;;;5035419;28;20065;-60
2022/05/07 10:35:42;;;;;;;23.15;7.82;;;;;;;;;;5043417;28;20045;-62
2022/05/07 10:38:10;;;;;;;12.43;5.68;;;;;;;;;;5037071;28;20049;-61
2022/05/07 10:40:37;;;;;;;15.55;7.78;;;;;;;;;;5042721;28;20057;-61
2022/05/07 10:43:05;;;;;;;12.50;5.13;;;;;;;;;;5020810;28;20068;-62
2022/05/07 10:45:41;;;;;;;14.70;4.80;;;;;;;;;;5042770;28;20085;-62
2022/05/07 10:48:16;;;;;;;14.18;6.65;;;;;;;;;;5030358;28;20049;-61
2022/05/07 10:50:50;;;;;;;16.80;6.72;;;;;;;;;;5021490;28;20057;-64
2022/05/07 10:53:19;;;;;;;17.13;6.68;;;;;;;;;;5018679;28;20054;-59
2022/05/07 10:55:45;;;;;;;15.60;7.43;;;;;;;;;;5043118;28;20110;-61
2022/05/07 10:58:12;;;;;;;19.38;7.30;;;;;;;;;;5052359;28;20056;-59
2022/05/07 11:00:39;;;;;;;18.90;6.95;;;;;;;;;;5035366;28;20057;-59
2022/05/07 11:03:08;;;;;;;41.05;18.02;;;;;;;;;;5035850;28;20034;-60
2022/05/07 11:05:35;;;;;;;17.80;8.38;;;;;;;;;;5022708;28;20046;-60
2022/05/07 11:08:03;;;;;;;27.08;8.05;;;;;;;;;;5024236;28;20050;-60
2022/05/07 11:10:32;;;;;;;18.20;8.68;;;;;;;;;;5038274;28;20136;-60
2022/05/07 11:13:05;;;;;;;22.45;8.43;;;;;;;;;;5042108;28;20057;-61
2022/05/07 11:15:32;;;;;;;18.65;8.45;;;;;;;;;;5019295;28;20058;-61
2022/05/07 11:17:59;;;;;;;22.58;9.00;;;;;;;;;;5027511;28;20045;-60
2022/05/07 11:20:31;;;;;;;22.15;9.43;;;;;;;;;;5039851;28;20057;-60
2022/05/07 11:22:58;;;;;;;15.25;7.05;;;;;;;;;;5040657;28;20053;-61
2022/05/07 11:25:25;;;;;;;20.33;8.55;;;;;;;;;;5021274;28;20115;-61
2022/05/07 11:27:55;;;;;;;18.10;7.20;;;;;;;;;;5037499;28;20120;-61
2022/05/07 11:30:22;;;;;;;15.07;7.05;;;;;;;;;;5022708;28;20061;-60
2022/05/07 11:32:49;;;;;;;14.25;7.38;;;;;;;;;;5025158;28;20057;-59
2022/05/07 11:35:16;;;;;;;14.23;7.30;;;;;;;;;;5036189;28;20057;-60
2022/05/07 11:37:43;;;;;;;16.88;7.28;;;;;;;;;;5042623;28;20111;-60
2022/05/07 11:40:11;;;;;;;16.60;7.15;;;;;;;;;;5035561;28;20045;-59
2022/05/07 11:42:40;;;;;;;13.80;6.70;;;;;;;;;;5026038;28;20057;-59
2022/05/07 11:45:33;;;;;;;15.30;6.63;;;;;;;;;;5035548;28;20344;-59
2022/05/07 11:48:02;;;;;;;15.02;6.53;;;;;;;;;;5059782;28;20057;-59
2022/05/07 11:50:30;;;;;;;13.55;5.93;;;;;;;;;;5036800;28;20057;-59
2022/05/07 11:52:57;;;;;;;14.40;6.40;;;;;;;;;;5040320;28;20057;-59
2022/05/07 11:55:27;;;;;;;13.43;5.35;;;;;;;;;;5018216;28;20102;-58
2022/05/07 11:57:54;;;;;;;14.63;5.72;;;;;;;;;;5041840;28;20080;-59
2022/05/07 12:00:24;;;;;;;14.40;5.70;;;;;;;;;;5033158;28;20053;-59
2022/05/07 12:02:52;;;;;;;15.85;6.15;;;;;;;;;;5015797;28;20116;-59
2022/05/07 12:05:18;;;;;;;13.32;5.75;;;;;;;;;;5031338;28;20049;-59
2022/05/07 12:07:46;;;;;;;12.20;6.05;;;;;;;;;;5033513;28;20046;-59
2022/05/07 12:10:13;;;;;;;15.75;5.70;;;;;;;;;;5048240;28;20084;-59
2022/05/07 12:12:41;;;;;;;14.98;5.88;;;;;;;;;;5018486;28;20050;-59
2022/05/07 12:15:08;;;;;;;12.40;5.47;;;;;;;;;;5034291;28;20054;-58
2022/05/07 12:17:54;;;;;;;14.77;5.80;;;;;;;;;;5045052;28;20046;-58
2022/05/07 12:20:24;;;;;;;12.25;5.70;;;;;;;;;;5029250;28;20203;-59
2022/05/07 12:31:04;;;;;;;17.90;6.80;;;;;;;;;;5040527;28;20145;-59
2022/05/07 12:33:33;;;;;;;14.68;6.50;;;;;;;;;;5031792;28;20054;-59
2022/05/07 12:35:59;;;;;;;;;;;;;;;;;;5048677;28;20057;-58
2022/05/07 12:38:25;;;;;;;10.77;5.45;;;;;;;;;;5039521;28;19925;-59
2022/05/07 12:40:52;;;;;;;15.35;6.28;;;;;;;;;;5028683;28;20057;-59
2022/05/07 12:43:19;;;;;;;18.48;6.10;;;;;;;;;;5022517;28;20053;-59
2022/05/07 12:45:48;;;;;;;11.75;5.22;;;;;;;;;;5046007;28;20060;-59
2022/05/07 12:48:15;;;;;;;16.80;7.30;;;;;;;;;;5039161;28;20049;-59
2022/05/07 12:50:46;;;;;;;21.50;7.63;;;;;;;;;;5046892;28;20059;-60
2022/05/07 12:53:14;;;;;;;12.40;5.10;;;;;;;;;;5041533;28;20057;-59
2022/05/07 12:55:41;;;;;;;18.77;7.35;;;;;;;;;;5046119;28;20056;-59
2022/05/07 12:58:09;;;;;;;18.27;6.82;;;;;;;;;;5010546;28;20045;-60
2022/05/07 13:00:35;;;;;;;18.38;7.63;;;;;;;;;;5037355;28;20041;-59
2022/05/07 13:03:02;;;;;;;13.38;5.57;;;;;;;;;;5038133;28;20049;-59
2022/05/07 13:05:29;;;;;;;20.95;9.18;;;;;;;;;;5045910;28;20076;-59
2022/05/07 13:07:58;;;;;;;11.95;6.07;;;;;;;;;;5038148;28;20099;-59
2022/05/07 13:10:25;;;;;;;16.48;7.65;;;;;;;;;;5044048;28;20144;-59
2022/05/07 13:12:52;;;;;;;18.45;8.07;;;;;;;;;;5044998;28;20057;-59
2022/05/07 13:15:18;;;;;;;16.20;8.02;;;;;;;;;;5021886;28;20057;-59
2022/05/07 13:17:45;;;;;;;16.92;7.40;;;;;;;;;;5044647;28;20148;-59
2022/05/07 13:20:12;;;;;;;11.52;6.30;;;;;;;;;;5038333;28;20046;-59
2022/05/07 13:22:39;;;;;;;19.83;6.00;;;;;;;;;;5044361;28;20049;-60
2022/05/07 13:25:07;;;;;;;10.32;5.20;;;;;;;;;;5022409;28;20057;-59
2022/05/07 13:27:34;;;;;;;14.73;7.47;;;;;;;;;;5044617;28;20111;-59
2022/05/07 13:30:02;;;;;;;15.48;7.15;;;;;;;;;;5038613;28;20060;-59
2022/05/07 13:32:29;;;;;;;15.02;7.07;;;;;;;;;;5027779;28;20084;-59
2022/05/07 13:34:56;;;;;;;13.50;6.82;;;;;;;;;;5038713;28;20099;-59
2022/05/07 13:37:22;;;;;;;13.30;6.45;;;;;;;;;;5027914;28;20060;-59
2022/05/07 13:39:49;;;;;;;18.83;8.07;;;;;;;;;;5037683;28;20078;-59
2022/05/07 13:42:17;;;;;;;19.80;8.15;;;;;;;;;;5044385;28;20121;-59
2022/05/07 13:44:44;;;;;;;19.13;8.18;;;;;;;;;;5037455;28;20064;-59
2022/05/07 13:47:11;;;;;;;17.55;7.95;;;;;;;;;;5043621;28;20049;-59
2022/05/07 13:49:39;;;;;;;16.67;7.50;;;;;;;;;;5038982;28;20064;-60
2022/05/07 13:52:06;;;;;;;15.48;7.60;;;;;;;;;;5027269;28;20052;-58
2022/05/07 13:54:33;;;;;;;13.30;5.88;;;;;;;;;;5041603;28;20049;-58
2022/05/07 13:57:00;;;;;;;13.57;6.57;;;;;;;;;;5021974;28;20100;-58
2022/05/07 13:59:29;;;;;;;22.98;9.43;;;;;;;;;;5042980;28;20057;-59
2022/05/07 14:01:55;;;;;;;16.92;7.10;;;;;;;;;;5017704;28;20045;-58
2022/05/07 14:04:23;;;;;;;14.80;7.68;;;;;;;;;;5024704;28;20116;-58
2022/05/07 14:06:50;;;;;;;22.48;9.30;;;;;;;;;;5020440;28;20038;-58
2022/05/07 14:09:17;;;;;;;18.60;8.43;;;;;;;;;;5060178;28;20053;-58
2022/05/07 14:11:44;;;;;;;15.57;6.43;;;;;;;;;;5037854;28;20056;-57
2022/05/07 14:14:11;;;;;;;12.30;6.20;;;;;;;;;;5043938;28;20057;-58
2022/05/07 14:16:39;;;;;;;13.60;6.45;;;;;;;;;;5037420;28;20137;-58
2022/05/07 14:19:05;;;;;;;15.15;7.32;;;;;;;;;;5025186;28;20060;-58
2022/05/07 14:21:32;;;;;;;15.65;6.63;;;;;;;;;;5029771;28;20133;-58
2022/05/07 14:23:59;;;;;;;17.63;6.85;;;;;;;;;;5036982;28;20053;-58
2022/05/07 14:26:26;;;;;;;12.20;5.57;;;;;;;;;;5039253;28;20057;-58
2022/05/07 14:28:53;;;;;;;13.13;6.15;;;;;;;;;;5014824;28;20054;-59
2022/05/07 14:31:19;;;;;;;10.95;5.57;;;;;;;;;;5000577;28;20127;-58
2022/05/07 14:33:48;;;;;;;19.48;6.65;;;;;;;;;;5011324;28;20064;-58
2022/05/07 14:36:14;;;;;;;;;;;;;;;;;;5021067;28;20057;-58
2022/05/07 14:38:40;;;;;;;11.18;4.88;;;;;;;;;;5033873;28;19956;-58
2022/05/07 14:41:07;;;;;;;13.18;5.88;;;;;;;;;;5043793;28;20077;-58
2022/05/07 14:43:34;;;;;;;12.60;5.88;;;;;;;;;;5036977;28;20346;-58
2022/05/07 14:46:01;;;;;;;13.95;5.95;;;;;;;;;;5043999;28;20052;-58
2022/05/07 14:48:27;;;;;;;11.63;5.65;;;;;;;;;;5036397;28;20073;-58
2022/05/07 14:50:56;;;;;;;11.15;5.53;;;;;;;;;;5043310;28;20136;-58
2022/05/07 14:53:23;;;;;;;15.35;5.70;;;;;;;;;;5037045;28;20072;-58
2022/05/07 14:55:50;;;;;;;12.40;5.00;;;;;;;;;;5042741;28;20136;-58
2022/05/07 14:58:18;;;;;;;13.67;5.80;;;;;;;;;;5036712;28;20050;-58
2022/05/07 15:00:44;;;;;;;13.05;5.70;;;;;;;;;;5026694;28;20296;-58
2022/05/07 15:03:11;;;;;;;15.20;6.03;;;;;;;;;;5029087;28;20064;-58
2022/05/07 15:05:37;;;;;;;14.48;4.70;;;;;;;;;;5008429;28;20061;-58
2022/05/07 15:10:46;;;;;;;8.02;4.63;;;;;;;;;;5037829;28;20123;-58
2022/05/07 15:13:12;;;;;;;10.98;4.93;;;;;;;;;;5027633;28;20048;-58
2022/05/07 15:15:39;;;;;;;10.77;4.82;;;;;;;;;;5043362;28;20107;-58
2022/05/07 15:18:06;;;;;;;15.27;6.15;;;;;;;;;;5031014;28;20054;-61
2022/05/07 15:20:33;;;;;;;18.88;5.68;;;;;;;;;;5027640;28;20053;-63
2022/05/07 15:22:59;;;;;;;12.73;5.40;;;;;;;;;;5023997;28;20053;-62
2022/05/07 15:25:27;;;;;;;12.48;6.15;;;;;;;;;;5041892;28;20108;-63
2022/05/07 15:27:54;;;;;;;15.20;6.53;;;;;;;;;;5027173;28;20053;-63
2022/05/07 15:30:21;;;;;;;14.25;6.90;;;;;;;;;;5033613;28;20122;-59
2022/05/07 15:38:17;;;;;;;13.20;6.28;;;;;;;;;;5028617;28;20049;-58
2022/05/07 15:40:46;;;;;;;11.40;5.75;;;;;;;;;;5017405;28;20054;-59
2022/05/07 15:43:13;;;;;;;14.52;6.70;;;;;;;;;;5025366;28;20139;-58
2022/05/07 15:45:39;;;;;;;14.68;6.32;;;;;;;;;;5020915;28;20057;-59
2022/05/07 15:48:06;;;;;;;13.73;5.63;;;;;;;;;;5043791;28;20076;-58